Terminal Aerodrome Forecast
Issued by NWS

Home | Current Version | Previous Version | Text Only | Print | Product List | Glossary On
Versions: 1 2 3 4 5 6 7 8 9 10 11 12 13 14 15
400
FTUS43 KIND 182320
TAFBMG
TAF
KBMG 182320Z 1900/1924 26006KT P6SM FEW250
     FM191000 23004KT P6SM VCSH SCT200
     FM191100 24004KT P6SM SCT200
     FM191600 28005KT P6SM SCT120
      AMD LTD TO CLD VIS AND WIND 1901/1913=

USA.gov is the U.S. government's official web portal to all federal, state and local government web resources and services.